ADDS METAR Data INFO
IDs: Format: Raw Decoded Include TAF

Data at: 0305 UTC 17 Jan 2018

KOWI 170255Z AUTO 00000KT 10SM CLR M17/M18 A3072 RMK AO2
KOWI 170235Z AUTO 00000KT 10SM CLR M17/M19 A3072 RMK AO2
KOWI 170215Z AUTO 00000KT 10SM CLR M16/M18 A3072 RMK AO2
KOWI 170155Z AUTO 00000KT 10SM CLR M16/M18 A3072 RMK AO2
KOWI 170135Z AUTO 00000KT 10SM CLR M15/M18 A3072 RMK AO2
KOWI 170115Z AUTO 00000KT 10SM CLR M15/M18 A3072 RMK AO2
KOWI 170055Z AUTO 00000KT 10SM CLR M14/M18 A3072 RMK AO2
KOWI 170035Z AUTO 00000KT 10SM CLR M14/M17 A3072 RMK AO2
KOWI 170015Z AUTO 32003KT 10SM CLR M14/M18 A3072 RMK AO2
KOWI 162355Z AUTO 33004KT 10SM CLR M14/M18 A3072 RMK AO2
KOWI 162335Z AUTO 33005KT 10SM CLR M13/M17 A3072 RMK AO2
KOWI 162315Z AUTO 33006KT 10SM CLR M12/M17 A3072 RMK AO2
KOWI 162255Z AUTO 33005KT 10SM CLR M12/M17 A3072 RMK AO2
KOWI 162235Z AUTO 34006KT 10SM FEW019 M11/M17 A3072 RMK AO2
KOWI 162215Z AUTO 33008KT 10SM FEW020 M11/M17 A3072 RMK AO2
KOWI 162155Z AUTO 32008KT 10SM CLR M11/M17 A3073 RMK AO2
KOWI 162135Z AUTO 30006KT 10SM CLR M11/M17 A3073 RMK AO2
KOWI 162115Z AUTO VRB06KT 10SM CLR M11/M17 A3072 RMK AO2
KOWI 162055Z AUTO 31008KT 10SM CLR M11/M16 A3073 RMK AO2
KOWI 162035Z AUTO 31007G12KT 10SM CLR M12/M17 A3072 RMK AO2
KOWI 162015Z AUTO 33009KT 10SM FEW015 M12/M17 A3073 RMK AO2
KOWI 161955Z AUTO 30010KT 10SM FEW015 BKN026 M12/M17 A3073 RMK AO2
KOWI 161935Z AUTO 29010KT 10SM OVC026 M12/M17 A3074 RMK AO2
KOWI 161915Z AUTO 32007G13KT 10SM OVC026 M13/M17 A3075 RMK AO2
KOWI 161855Z AUTO 31010KT 10SM BKN027 M13/M18 A3075 RMK AO2
KOWI 161835Z AUTO 31008G14KT 9SM FEW016 SCT023 M13/M18 A3076 RMK AO2
KOWI 161815Z AUTO 31008KT 10SM FEW023 M14/M18 A3077 RMK AO2
KOWI 161755Z AUTO 34010G15KT 10SM FEW022 M14/M19 A3078 RMK AO2
KOWI 161735Z AUTO 33010KT 10SM FEW014 BKN021 M14/M19 A3078 RMK AO2
KOWI 161715Z AUTO 33009KT 10SM FEW014 SCT020 BKN026 M15/M20 A3079 RMK AO2
KOWI 161655Z AUTO 32008KT 10SM CLR M15/M20 A3079 RMK AO2
KOWI 161635Z AUTO 32011KT 10SM FEW014 BKN019 M16/M20 A3079 RMK AO2
KOWI 161615Z AUTO 33011G16KT 10SM BKN020 BKN026 M16/M21 A3080 RMK AO2
KOWI 161555Z AUTO 34011KT 10SM SCT024 M17/M21 A3079 RMK AO2
KOWI 161535Z AUTO 33012G18KT 10SM CLR M17/M21 A3079 RMK AO2
KOWI 161515Z AUTO 33012KT 10SM CLR M17/M21 A3078 RMK AO2
KOWI 161455Z AUTO 32008G14KT 10SM CLR M18/M22 A3078 RMK AO2
KOWI 161435Z AUTO 32009KT 10SM CLR M18/M22 A3077 RMK AO2
KOWI 161415Z AUTO 32008KT 10SM CLR M19/M23 A3077 RMK AO2
KOWI 161355Z AUTO 32008KT 10SM CLR M19/M23 A3076 RMK AO2
KOWI 161335Z AUTO 31006KT 10SM CLR M20/M23 A3076 RMK AO2
KOWI 161315Z AUTO 31007KT 10SM FEW013 SCT036 M19/M23 A3075 RMK AO2
KOWI 161255Z AUTO 31007KT 10SM FEW014 SCT036 M20/M23 A3075 RMK AO2
KOWI 161235Z AUTO 31007KT 10SM SCT014 SCT037 M19/M23 A3075 RMK AO2
KOWI 161215Z AUTO 31007KT 10SM FEW014 SCT037 M19/M23 A3074 RMK AO2
KOWI 161155Z AUTO 30008KT 10SM CLR M19/M23 A3074 RMK AO2
KOWI 161135Z AUTO 31008KT 10SM FEW041 M19/M23 A3073 RMK AO2
KOWI 161115Z AUTO 32008KT 10SM FEW041 M19/M23 A3073 RMK AO2
KOWI 161055Z AUTO 32006KT 10SM FEW027 SCT038 BKN044 M19/M23 A3073 RMK AO2
KOWI 161035Z AUTO 33007KT 10SM FEW026 SCT036 BKN042 M19/M23 A3073 RMK AO2
KOWI 161015Z AUTO 32008KT 10SM FEW017 FEW027 BKN042 M19/M23 A3073 RMK AO2
KOWI 160955Z AUTO 33007KT 10SM SCT017 SCT026 BKN041 M19/M23 A3074 RMK AO2
KOWI 160935Z AUTO 32007KT 10SM SCT018 BKN028 BKN036 M19/M23 A3074 RMK AO2
KOWI 160915Z AUTO 32006KT 10SM FEW018 BKN026 BKN036 M19/M23 A3073 RMK AO2
KOWI 160855Z AUTO 33008KT 10SM FEW014 BKN020 OVC033 M18/M23 A3073 RMK AO2
KOWI 160835Z AUTO 33009KT 10SM FEW021 SCT030 SCT043 M18/M23 A3073 RMK AO2
KOWI 160815Z AUTO 32007KT 10SM FEW024 FEW030 SCT040 M18/M23 A3073 RMK AO2
KOWI 160755Z AUTO 32008KT 10SM FEW030 SCT040 M18/M22 A3072 RMK AO2
KOWI 160735Z AUTO 32010KT 10SM FEW024 SCT031 BKN041 M17/M22 A3071 RMK AO2
KOWI 160715Z AUTO 32008KT 10SM BKN020 OVC025 M17/M21 A3072 RMK AO2
KOWI 160655Z AUTO 32007KT 10SM FEW004 BKN019 OVC025 M17/M20 A3071 RMK AO2
KOWI 160635Z AUTO 31006KT 8SM BKN004 BKN018 OVC030 M17/M20 A3072 RMK AO2
KOWI 160615Z AUTO 33006KT 3SM -SN BKN005 BKN015 OVC030 M16/M19 A3072 RMK AO2
KOWI 160555Z AUTO 32006KT 8SM FEW010 SCT016 BKN022 M16/M20 A3072 RMK AO2
KOWI 160535Z AUTO 32009KT 10SM SCT016 SCT020 OVC033 M16/M21 A3072 RMK AO2
KOWI 160515Z AUTO 32013G18KT 10SM FEW022 BKN032 BKN040 M15/M21 A3072 RMK AO2
KOWI 160455Z AUTO 32012KT 10SM CLR M16/M20 A3072 RMK AO2
KOWI 160435Z AUTO 32007KT 10SM FEW019 SCT027 SCT036 M16/M20 A3072 RMK AO2
KOWI 160415Z AUTO 33005KT 10SM FEW019 BKN026 OVC034 M16/M19 A3072 RMK AO2
KOWI 160355Z AUTO 33008KT 10SM SCT021 BKN027 OVC036 M15/M19 A3070 RMK AO2
KOWI 160335Z AUTO 33006KT 10SM FEW017 SCT022 BKN028 M15/M18 A3071 RMK AO2
KOWI 160315Z AUTO 34006KT 10SM FEW023 OVC029 M15/M19 A3070 RMK AO2
KOWI 160255Z AUTO 33007KT 10SM FEW014 SCT022 OVC029 M14/M18 A3069 RMK AO2
KOWI 160235Z AUTO 32008KT 10SM FEW017 BKN023 OVC033 M14/M18 A3069 RMK AO2
KOWI 160215Z AUTO 32011KT 10SM FEW017 FEW024 OVC033 M14/M18 A3068 RMK AO2
KOWI 160155Z AUTO 31009KT 10SM BKN034 OVC040 M13/M18 A3067 RMK AO2
KOWI 160135Z AUTO 31007KT 10SM BKN034 OVC040 M13/M19 A3067 RMK AO2
KOWI 160115Z AUTO 33008KT 10SM OVC034 M13/M18 A3067 RMK AO2
KOWI 160055Z AUTO 32006KT 10SM FEW025 OVC035 M12/M17 A3066 RMK AO2
KOWI 160035Z AUTO 33010G19KT 10SM FEW024 OVC032 M12/M17 A3065 RMK AO2
KOWI 160015Z AUTO 33010G17KT 10SM OVC033 M12/M17 A3064 RMK AO2
KOWI 152355Z AUTO 32012G22KT 10SM OVC034 M12/M17 A3063 RMK AO2
KOWI 152335Z AUTO 33009KT 10SM OVC032 M12/M17 A3062 RMK AO2
KOWI 152315Z AUTO 32013KT 10SM OVC033 M12/M17 A3061 RMK AO2
KOWI 152255Z AUTO 32012G19KT 9SM OVC034 M12/M17 A3060 RMK AO2
KOWI 152235Z AUTO 32016G25KT 10SM OVC032 M12/M17 A3060 RMK AO2
KOWI 152215Z AUTO 32014G21KT 10SM BKN032 M11/M17 A3059 RMK AO2
KOWI 152155Z AUTO 31016KT 10SM SCT033 M11/M17 A3058 RMK AO2
KOWI 152135Z AUTO 33016KT 10SM FEW034 M10/M17 A3057 RMK AO2
KOWI 152115Z AUTO 32018KT 10SM CLR M10/M16 A3055 RMK AO2
KOWI 152055Z AUTO 34017G23KT 10SM CLR M10/M16 A3055 RMK AO2
KOWI 152035Z AUTO 32015G21KT 10SM CLR M10/M16 A3055 RMK AO2
KOWI 152015Z AUTO 33015G21KT 10SM CLR M10/M17 A3054 RMK AO2
KOWI 151955Z AUTO 32014G20KT 10SM FEW026 FEW031 M10/M17 A3054 RMK AO2
KOWI 151935Z AUTO 33012KT 10SM FEW023 FEW028 M10/M16 A3054 RMK AO2
KOWI 151915Z AUTO 32013G20KT 10SM CLR M11/M17 A3055 RMK AO2
KOWI 151855Z AUTO 33013G20KT 10SM CLR M11/M17 A3055 RMK AO2
KOWI 151835Z AUTO 32015G21KT 10SM CLR M10/M17 A3055 RMK AO2
KOWI 151815Z AUTO 34017KT 10SM CLR M11/M17 A3055 RMK AO2
KOWI 151755Z AUTO 33014G22KT 10SM CLR M11/M17 A3056 RMK AO2
KOWI 151735Z AUTO 35015KT 10SM CLR M11/M17 A3056 RMK AO2
KOWI 151715Z AUTO 33012G21KT 10SM CLR M12/M17 A3057 RMK AO2
KOWI 151655Z AUTO 33020KT 10SM CLR M12/M18 A3057 RMK AO2
KOWI 151635Z AUTO 32014G22KT 10SM CLR M11/M17 A3057 RMK AO2
KOWI 151615Z AUTO 33013G19KT 10SM CLR M11/M17 A3056 RMK AO2
KOWI 151555Z AUTO 34018G24KT 10SM SCT120 M11/M17 A3055 RMK AO2
KOWI 151535Z AUTO 34021G29KT 10SM BKN120 M11/M17 A3053 RMK AO2
KOWI 151515Z AUTO 34013G22KT 10SM SCT110 M11/M16 A3053 RMK AO2